sensor_id;sensor_type;location;lat;lon;timestamp;temperature;humidity
25346;DHT22;13300;51.032;3.710;2023-10-08T00:01:18;16.00;99.90
25346;DHT22;13300;51.032;3.710;2023-10-08T00:03:44;16.10;99.90
25346;DHT22;13300;51.032;3.710;2023-10-08T00:06:18;16.10;99.90
25346;DHT22;13300;51.032;3.710;2023-10-08T00:08:46;16.10;99.90
25346;DHT22;13300;51.032;3.710;2023-10-08T00:11:12;16.10;99.90
25346;DHT22;13300;51.032;3.710;2023-10-08T00:13:37;16.20;99.90
25346;DHT22;13300;51.032;3.710;2023-10-08T00:16:10;16.10;99.90
25346;DHT22;13300;51.032;3.710;2023-10-08T00:18:37;16.20;99.90
25346;DHT22;13300;51.032;3.710;2023-10-08T00:21:05;16.30;99.90
25346;DHT22;13300;51.032;3.710;2023-10-08T00:23:37;16.20;99.90
25346;DHT22;13300;51.032;3.710;2023-10-08T00:26:10;16.20;99.90
25346;DHT22;13300;51.032;3.710;2023-10-08T00:28:35;16.20;99.90
25346;DHT22;13300;51.032;3.710;2023-10-08T00:31:02;16.00;99.90
25346;DHT22;13300;51.032;3.710;2023-10-08T00:33:38;16.00;99.90
25346;DHT22;13300;51.032;3.710;2023-10-08T00:36:04;15.90;99.90
25346;DHT22;13300;51.032;3.710;2023-10-08T00:38:48;15.90;99.90
25346;DHT22;13300;51.032;3.710;2023-10-08T00:41:20;16.00;99.90
25346;DHT22;13300;51.032;3.710;2023-10-08T00:43:48;16.00;99.90
25346;DHT22;13300;51.032;3.710;2023-10-08T00:46:15;15.90;99.90
25346;DHT22;13300;51.032;3.710;2023-10-08T00:48:54;15.90;99.90
25346;DHT22;13300;51.032;3.710;2023-10-08T00:51:26;15.90;99.90
25346;DHT22;13300;51.032;3.710;2023-10-08T00:54:03;16.00;99.90
25346;DHT22;13300;51.032;3.710;2023-10-08T00:56:33;15.90;99.90
25346;DHT22;13300;51.032;3.710;2023-10-08T00:59:17;15.80;99.90
25346;DHT22;13300;51.032;3.710;2023-10-08T01:01:46;15.80;99.90
25346;DHT22;13300;51.032;3.710;2023-10-08T01:04:22;15.80;99.90
25346;DHT22;13300;51.032;3.710;2023-10-08T01:06:52;15.70;99.90
25346;DHT22;13300;51.032;3.710;2023-10-08T01:09:24;15.70;99.90
25346;DHT22;13300;51.032;3.710;2023-10-08T01:14:41;15.70;99.90
25346;DHT22;13300;51.032;3.710;2023-10-08T01:17:08;15.60;99.90
25346;DHT22;13300;51.032;3.710;2023-10-08T01:19:34;15.70;99.90
25346;DHT22;13300;51.032;3.710;2023-10-08T01:22:04;15.70;99.90
25346;DHT22;13300;51.032;3.710;2023-10-08T01:24:32;15.60;99.90
25346;DHT22;13300;51.032;3.710;2023-10-08T01:27:00;15.50;99.90
25346;DHT22;13300;51.032;3.710;2023-10-08T01:29:29;15.50;99.90
25346;DHT22;13300;51.032;3.710;2023-10-08T01:31:55;15.50;99.90
25346;DHT22;13300;51.032;3.710;2023-10-08T01:34:22;15.50;99.90
25346;DHT22;13300;51.032;3.710;2023-10-08T01:36:53;15.40;99.90
25346;DHT22;13300;51.032;3.710;2023-10-08T01:39:19;15.30;99.90
25346;DHT22;13300;51.032;3.710;2023-10-08T01:41:45;15.30;99.90
25346;DHT22;13300;51.032;3.710;2023-10-08T01:44:16;15.40;99.90
25346;DHT22;13300;51.032;3.710;2023-10-08T01:46:42;15.30;99.90
25346;DHT22;13300;51.032;3.710;2023-10-08T01:49:08;15.30;99.90
25346;DHT22;13300;51.032;3.710;2023-10-08T01:51:39;15.20;99.90
25346;DHT22;13300;51.032;3.710;2023-10-08T01:54:12;15.30;99.90
25346;DHT22;13300;51.032;3.710;2023-10-08T01:56:39;15.20;99.90
25346;DHT22;13300;51.032;3.710;2023-10-08T01:59:12;15.20;99.90
25346;DHT22;13300;51.032;3.710;2023-10-08T02:01:42;15.30;99.90
25346;DHT22;13300;51.032;3.710;2023-10-08T02:04:08;15.30;99.90
25346;DHT22;13300;51.032;3.710;2023-10-08T02:06:35;15.20;99.90
25346;DHT22;13300;51.032;3.710;2023-10-08T02:09:01;15.20;99.90
25346;DHT22;13300;51.032;3.710;2023-10-08T02:11:42;15.30;99.90
25346;DHT22;13300;51.032;3.710;2023-10-08T02:14:08;15.20;99.90
25346;DHT22;13300;51.032;3.710;2023-10-08T02:16:34;15.30;99.90
25346;DHT22;13300;51.032;3.710;2023-10-08T02:19:00;15.20;99.90
25346;DHT22;13300;51.032;3.710;2023-10-08T02:21:25;15.00;99.90
25346;DHT22;13300;51.032;3.710;2023-10-08T02:23:55;15.00;99.90
25346;DHT22;13300;51.032;3.710;2023-10-08T02:26:22;15.10;99.90
25346;DHT22;13300;51.032;3.710;2023-10-08T02:28:48;15.00;99.90
25346;DHT22;13300;51.032;3.710;2023-10-08T02:31:17;15.00;99.90
25346;DHT22;13300;51.032;3.710;2023-10-08T02:33:43;15.10;99.90
25346;DHT22;13300;51.032;3.710;2023-10-08T02:36:09;15.10;99.90
25346;DHT22;13300;51.032;3.710;2023-10-08T02:38:35;15.30;99.90
25346;DHT22;13300;51.032;3.710;2023-10-08T02:41:03;15.30;99.90
25346;DHT22;13300;51.032;3.710;2023-10-08T02:43:32;15.30;99.90
25346;DHT22;13300;51.032;3.710;2023-10-08T02:46:00;15.40;99.90
25346;DHT22;13300;51.032;3.710;2023-10-08T02:48:25;15.50;99.90
25346;DHT22;13300;51.032;3.710;2023-10-08T02:50:52;15.40;99.90
25346;DHT22;13300;51.032;3.710;2023-10-08T02:53:19;15.40;99.90
25346;DHT22;13300;51.032;3.710;2023-10-08T02:55:48;15.40;99.90
25346;DHT22;13300;51.032;3.710;2023-10-08T02:58:15;15.50;99.90
25346;DHT22;13300;51.032;3.710;2023-10-08T03:03:06;15.50;99.90
25346;DHT22;13300;51.032;3.710;2023-10-08T03:05:43;15.50;99.90
25346;DHT22;13300;51.032;3.710;2023-10-08T03:08:09;15.50;99.90
25346;DHT22;13300;51.032;3.710;2023-10-08T03:10:39;15.40;99.90
25346;DHT22;13300;51.032;3.710;2023-10-08T03:13:07;15.50;99.90
25346;DHT22;13300;51.032;3.710;2023-10-08T03:15:35;15.70;99.90
25346;DHT22;13300;51.032;3.710;2023-10-08T03:18:05;15.60;99.90
25346;DHT22;13300;51.032;3.710;2023-10-08T03:20:42;15.50;99.90
25346;DHT22;13300;51.032;3.710;2023-10-08T03:23:10;15.50;99.90
25346;DHT22;13300;51.032;3.710;2023-10-08T03:25:48;15.50;99.90
25346;DHT22;13300;51.032;3.710;2023-10-08T03:28:15;15.50;99.90
25346;DHT22;13300;51.032;3.710;2023-10-08T03:30:41;15.50;99.90
25346;DHT22;13300;51.032;3.710;2023-10-08T03:33:18;15.50;99.90
25346;DHT22;13300;51.032;3.710;2023-10-08T03:35:52;15.60;99.90
25346;DHT22;13300;51.032;3.710;2023-10-08T03:38:21;15.50;99.90
25346;DHT22;13300;51.032;3.710;2023-10-08T03:40:56;15.50;99.90
25346;DHT22;13300;51.032;3.710;2023-10-08T03:43:34;15.50;99.90
25346;DHT22;13300;51.032;3.710;2023-10-08T03:46:04;15.40;99.90
25346;DHT22;13300;51.032;3.710;2023-10-08T03:48:33;15.40;99.90
25346;DHT22;13300;51.032;3.710;2023-10-08T03:51:02;15.40;99.90
25346;DHT22;13300;51.032;3.710;2023-10-08T03:53:32;15.30;99.90
25346;DHT22;13300;51.032;3.710;2023-10-08T03:56:02;15.30;99.90
25346;DHT22;13300;51.032;3.710;2023-10-08T03:58:31;15.20;99.90
25346;DHT22;13300;51.032;3.710;2023-10-08T04:01:06;15.20;99.90
25346;DHT22;13300;51.032;3.710;2023-10-08T04:03:36;15.20;99.90
25346;DHT22;13300;51.032;3.710;2023-10-08T04:06:21;15.20;99.90
25346;DHT22;13300;51.032;3.710;2023-10-08T04:09:16;15.20;99.90
25346;DHT22;13300;51.032;3.710;2023-10-08T04:11:43;15.20;99.90
25346;DHT22;13300;51.032;3.710;2023-10-08T04:14:12;15.30;99.90
25346;DHT22;13300;51.032;3.710;2023-10-08T04:16:38;15.20;99.90
25346;DHT22;13300;51.032;3.710;2023-10-08T04:19:03;15.20;99.90
25346;DHT22;13300;51.032;3.710;2023-10-08T04:21:29;15.20;99.90
25346;DHT22;13300;51.032;3.710;2023-10-08T04:23:55;15.20;99.90
25346;DHT22;13300;51.032;3.710;2023-10-08T04:26:22;15.20;99.90
25346;DHT22;13300;51.032;3.710;2023-10-08T04:28:52;15.20;99.90
25346;DHT22;13300;51.032;3.710;2023-10-08T04:31:23;15.20;99.90
25346;DHT22;13300;51.032;3.710;2023-10-08T04:34:02;15.20;99.90
25346;DHT22;13300;51.032;3.710;2023-10-08T04:36:34;15.20;99.90
25346;DHT22;13300;51.032;3.710;2023-10-08T04:38:59;15.20;99.90
25346;DHT22;13300;51.032;3.710;2023-10-08T04:41:30;15.20;99.90
25346;DHT22;13300;51.032;3.710;2023-10-08T04:43:56;15.20;99.90
25346;DHT22;13300;51.032;3.710;2023-10-08T04:46:22;15.20;99.90
25346;DHT22;13300;51.032;3.710;2023-10-08T04:49:05;15.30;99.90
25346;DHT22;13300;51.032;3.710;2023-10-08T04:51:33;15.20;99.90
25346;DHT22;13300;51.032;3.710;2023-10-08T04:54:10;15.30;99.90
25346;DHT22;13300;51.032;3.710;2023-10-08T04:56:41;15.10;99.90
25346;DHT22;13300;51.032;3.710;2023-10-08T04:59:07;14.90;99.90
25346;DHT22;13300;51.032;3.710;2023-10-08T05:01:36;14.90;99.90
25346;DHT22;13300;51.032;3.710;2023-10-08T05:04:14;14.90;99.90
25346;DHT22;13300;51.032;3.710;2023-10-08T05:06:58;15.00;99.90
25346;DHT22;13300;51.032;3.710;2023-10-08T05:09:42;14.90;99.90
25346;DHT22;13300;51.032;3.710;2023-10-08T05:12:13;15.00;99.90
25346;DHT22;13300;51.032;3.710;2023-10-08T05:14:57;15.20;99.90
25346;DHT22;13300;51.032;3.710;2023-10-08T05:17:42;15.20;99.90
25346;DHT22;13300;51.032;3.710;2023-10-08T05:20:28;15.20;99.90
25346;DHT22;13300;51.032;3.710;2023-10-08T05:23:24;15.30;99.90
25346;DHT22;13300;51.032;3.710;2023-10-08T05:25:50;15.20;99.90
25346;DHT22;13300;51.032;3.710;2023-10-08T05:28:35;15.30;99.90
25346;DHT22;13300;51.032;3.710;2023-10-08T05:31:33;15.30;99.90
25346;DHT22;13300;51.032;3.710;2023-10-08T05:34:08;15.40;99.90
25346;DHT22;13300;51.032;3.710;2023-10-08T05:36:42;15.40;99.90
25346;DHT22;13300;51.032;3.710;2023-10-08T05:39:27;15.40;99.90
25346;DHT22;13300;51.032;3.710;2023-10-08T05:41:57;15.40;99.90
25346;DHT22;13300;51.032;3.710;2023-10-08T05:44:41;15.50;99.90
25346;DHT22;13300;51.032;3.710;2023-10-08T05:47:14;15.40;99.90
25346;DHT22;13300;51.032;3.710;2023-10-08T05:49:58;15.40;99.90
25346;DHT22;13300;51.032;3.710;2023-10-08T05:52:42;15.50;99.90
25346;DHT22;13300;51.032;3.710;2023-10-08T05:55:22;15.60;99.90
25346;DHT22;13300;51.032;3.710;2023-10-08T05:57:58;15.70;99.90
25346;DHT22;13300;51.032;3.710;2023-10-08T06:00:50;15.70;99.90
25346;DHT22;13300;51.032;3.710;2023-10-08T06:03:16;15.70;99.90
25346;DHT22;13300;51.032;3.710;2023-10-08T06:06:08;15.70;99.90
25346;DHT22;13300;51.032;3.710;2023-10-08T06:08:37;15.70;99.90
25346;DHT22;13300;51.032;3.710;2023-10-08T06:11:17;15.70;99.90
25346;DHT22;13300;51.032;3.710;2023-10-08T06:14:02;15.80;99.90
25346;DHT22;13300;51.032;3.710;2023-10-08T06:16:29;15.80;99.90
25346;DHT22;13300;51.032;3.710;2023-10-08T06:19:07;15.90;99.90
25346;DHT22;13300;51.032;3.710;2023-10-08T06:21:35;16.00;99.90
25346;DHT22;13300;51.032;3.710;2023-10-08T06:24:02;16.00;99.90
25346;DHT22;13300;51.032;3.710;2023-10-08T06:26:37;16.00;99.90
25346;DHT22;13300;51.032;3.710;2023-10-08T06:29:09;16.10;99.90
25346;DHT22;13300;51.032;3.710;2023-10-08T06:31:44;16.20;99.90
25346;DHT22;13300;51.032;3.710;2023-10-08T06:34:16;16.30;99.90
25346;DHT22;13300;51.032;3.710;2023-10-08T06:36:41;16.30;99.90
25346;DHT22;13300;51.032;3.710;2023-10-08T06:39:07;16.10;99.90
25346;DHT22;13300;51.032;3.710;2023-10-08T06:41:39;16.20;99.90
25346;DHT22;13300;51.032;3.710;2023-10-08T06:44:07;16.20;99.90
25346;DHT22;13300;51.032;3.710;2023-10-08T06:46:39;16.40;99.90
25346;DHT22;13300;51.032;3.710;2023-10-08T06:49:07;16.40;99.90
25346;DHT22;13300;51.032;3.710;2023-10-08T06:51:37;16.50;99.90
25346;DHT22;13300;51.032;3.710;2023-10-08T06:54:03;16.90;99.90
25346;DHT22;13300;51.032;3.710;2023-10-08T06:56:29;17.30;99.90
25346;DHT22;13300;51.032;3.710;2023-10-08T06:58:56;17.60;99.90
25346;DHT22;13300;51.032;3.710;2023-10-08T07:01:24;17.80;99.90
25346;DHT22;13300;51.032;3.710;2023-10-08T07:03:50;17.90;99.90
25346;DHT22;13300;51.032;3.710;2023-10-08T07:06:17;18.20;99.90
25346;DHT22;13300;51.032;3.710;2023-10-08T07:08:51;18.40;99.90
25346;DHT22;13300;51.032;3.710;2023-10-08T07:11:20;18.60;99.90
25346;DHT22;13300;51.032;3.710;2023-10-08T07:13:45;18.70;99.90
25346;DHT22;13300;51.032;3.710;2023-10-08T07:16:11;18.70;99.90
25346;DHT22;13300;51.032;3.710;2023-10-08T07:18:43;18.40;99.90
25346;DHT22;13300;51.032;3.710;2023-10-08T07:21:16;18.30;99.90
25346;DHT22;13300;51.032;3.710;2023-10-08T07:23:42;18.40;99.90
25346;DHT22;13300;51.032;3.710;2023-10-08T07:26:28;18.30;99.90
25346;DHT22;13300;51.032;3.710;2023-10-08T07:29:02;18.40;99.90
25346;DHT22;13300;51.032;3.710;2023-10-08T07:31:33;18.40;99.90
25346;DHT22;13300;51.032;3.710;2023-10-08T07:33:59;18.20;99.90
25346;DHT22;13300;51.032;3.710;2023-10-08T07:36:41;18.30;99.90
25346;DHT22;13300;51.032;3.710;2023-10-08T07:39:07;18.40;99.90
25346;DHT22;13300;51.032;3.710;2023-10-08T07:41:34;18.60;99.90
25346;DHT22;13300;51.032;3.710;2023-10-08T07:44:00;19.00;99.90
25346;DHT22;13300;51.032;3.710;2023-10-08T07:46:25;19.20;99.90
25346;DHT22;13300;51.032;3.710;2023-10-08T07:48:54;19.30;99.90
25346;DHT22;13300;51.032;3.710;2023-10-08T07:51:20;19.40;99.90
25346;DHT22;13300;51.032;3.710;2023-10-08T07:53:49;19.70;99.90
25346;DHT22;13300;51.032;3.710;2023-10-08T07:56:19;20.30;99.90
25346;DHT22;13300;51.032;3.710;2023-10-08T07:58:45;21.10;99.90
25346;DHT22;13300;51.032;3.710;2023-10-08T08:01:10;21.70;99.90
25346;DHT22;13300;51.032;3.710;2023-10-08T08:03:48;22.30;99.90
25346;DHT22;13300;51.032;3.710;2023-10-08T08:06:18;22.90;99.90
25346;DHT22;13300;51.032;3.710;2023-10-08T08:08:47;23.40;99.90
25346;DHT22;13300;51.032;3.710;2023-10-08T08:11:13;23.90;99.90
25346;DHT22;13300;51.032;3.710;2023-10-08T08:13:42;24.50;99.90
25346;DHT22;13300;51.032;3.710;2023-10-08T08:16:09;25.20;99.90
25346;DHT22;13300;51.032;3.710;2023-10-08T08:18:51;25.70;99.90
25346;DHT22;13300;51.032;3.710;2023-10-08T08:21:18;26.00;99.90
25346;DHT22;13300;51.032;3.710;2023-10-08T08:23:45;26.30;99.90
25346;DHT22;13300;51.032;3.710;2023-10-08T08:26:18;26.30;99.90
25346;DHT22;13300;51.032;3.710;2023-10-08T08:29:02;26.30;99.90
25346;DHT22;13300;51.032;3.710;2023-10-08T08:31:28;26.40;99.90
25346;DHT22;13300;51.032;3.710;2023-10-08T08:33:57;26.40;99.90
25346;DHT22;13300;51.032;3.710;2023-10-08T08:36:26;26.70;99.90
25346;DHT22;13300;51.032;3.710;2023-10-08T08:38:52;27.10;99.90
25346;DHT22;13300;51.032;3.710;2023-10-08T08:41:18;27.40;99.90
25346;DHT22;13300;51.032;3.710;2023-10-08T08:43:47;27.60;99.90
25346;DHT22;13300;51.032;3.710;2023-10-08T08:46:13;27.20;99.90
25346;DHT22;13300;51.032;3.710;2023-10-08T08:48:43;26.60;99.90
25346;DHT22;13300;51.032;3.710;2023-10-08T08:51:11;26.50;99.90
25346;DHT22;13300;51.032;3.710;2023-10-08T08:53:38;26.80;99.90
25346;DHT22;13300;51.032;3.710;2023-10-08T08:56:09;27.10;99.90
25346;DHT22;13300;51.032;3.710;2023-10-08T08:58:34;27.20;99.90
25346;DHT22;13300;51.032;3.710;2023-10-08T09:01:00;27.20;99.90
25346;DHT22;13300;51.032;3.710;2023-10-08T09:03:29;27.50;99.90
25346;DHT22;13300;51.032;3.710;2023-10-08T09:05:58;27.90;99.90
25346;DHT22;13300;51.032;3.710;2023-10-08T09:08:27;27.90;99.90
25346;DHT22;13300;51.032;3.710;2023-10-08T09:10:53;27.60;99.90
25346;DHT22;13300;51.032;3.710;2023-10-08T09:13:26;27.10;99.90
25346;DHT22;13300;51.032;3.710;2023-10-08T09:15:55;26.30;99.90
25346;DHT22;13300;51.032;3.710;2023-10-08T09:18:23;26.00;99.90
25346;DHT22;13300;51.032;3.710;2023-10-08T09:20:49;25.90;99.90
25346;DHT22;13300;51.032;3.710;2023-10-08T09:23:15;26.10;99.90
25346;DHT22;13300;51.032;3.710;2023-10-08T09:25:43;26.30;99.90
25346;DHT22;13300;51.032;3.710;2023-10-08T09:28:10;27.10;99.90
25346;DHT22;13300;51.032;3.710;2023-10-08T09:30:38;27.80;99.90
25346;DHT22;13300;51.032;3.710;2023-10-08T09:33:09;28.20;99.90
25346;DHT22;13300;51.032;3.710;2023-10-08T09:35:36;27.80;99.90
25346;DHT22;13300;51.032;3.710;2023-10-08T09:38:02;27.10;99.90
25346;DHT22;13300;51.032;3.710;2023-10-08T09:40:28;26.70;99.90
25346;DHT22;13300;51.032;3.710;2023-10-08T09:42:55;26.70;99.90
25346;DHT22;13300;51.032;3.710;2023-10-08T09:45:21;27.10;99.90
25346;DHT22;13300;51.032;3.710;2023-10-08T09:47:49;27.90;99.90
25346;DHT22;13300;51.032;3.710;2023-10-08T09:50:16;28.40;99.90
25346;DHT22;13300;51.032;3.710;2023-10-08T09:52:56;28.80;99.90
25346;DHT22;13300;51.032;3.710;2023-10-08T09:55:25;29.20;99.90
25346;DHT22;13300;51.032;3.710;2023-10-08T09:57:51;29.50;99.90
25346;DHT22;13300;51.032;3.710;2023-10-08T10:00:20;29.30;99.90
25346;DHT22;13300;51.032;3.710;2023-10-08T10:02:59;29.40;99.90
25346;DHT22;13300;51.032;3.710;2023-10-08T10:05:32;29.50;99.90
25346;DHT22;13300;51.032;3.710;2023-10-08T10:07:57;30.10;99.90
25346;DHT22;13300;51.032;3.710;2023-10-08T10:10:30;30.50;99.90
25346;DHT22;13300;51.032;3.710;2023-10-08T10:13:02;30.30;99.90
25346;DHT22;13300;51.032;3.710;2023-10-08T10:15:28;30.60;99.90
25346;DHT22;13300;51.032;3.710;2023-10-08T10:23:39;30.70;99.90
25346;DHT22;13300;51.032;3.710;2023-10-08T10:26:16;30.90;99.90
25346;DHT22;13300;51.032;3.710;2023-10-08T10:31:32;30.70;99.90
25346;DHT22;13300;51.032;3.710;2023-10-08T10:34:09;30.50;99.90
25346;DHT22;13300;51.032;3.710;2023-10-08T10:36:35;29.80;99.90
25346;DHT22;13300;51.032;3.710;2023-10-08T10:39:00;30.40;99.90
25346;DHT22;13300;51.032;3.710;2023-10-08T10:41:50;31.00;99.90
25346;DHT22;13300;51.032;3.710;2023-10-08T10:44:16;31.60;99.90
25346;DHT22;13300;51.032;3.710;2023-10-08T10:46:42;32.20;99.90
25346;DHT22;13300;51.032;3.710;2023-10-08T10:49:08;32.30;99.90
25346;DHT22;13300;51.032;3.710;2023-10-08T10:51:50;32.90;99.90
25346;DHT22;13300;51.032;3.710;2023-10-08T10:54:22;33.30;98.50
25346;DHT22;13300;51.032;3.710;2023-10-08T10:56:49;33.80;98.00
25346;DHT22;13300;51.032;3.710;2023-10-08T10:59:32;34.20;97.30
25346;DHT22;13300;51.032;3.710;2023-10-08T11:02:03;34.60;95.60
25346;DHT22;13300;51.032;3.710;2023-10-08T11:04:55;34.70;94.80
25346;DHT22;13300;51.032;3.710;2023-10-08T11:07:26;34.20;94.40
25346;DHT22;13300;51.032;3.710;2023-10-08T11:09:52;33.30;95.40
25346;DHT22;13300;51.032;3.710;2023-10-08T11:12:20;32.80;95.70
25346;DHT22;13300;51.032;3.710;2023-10-08T11:14:55;31.80;96.90
25346;DHT22;13300;51.032;3.710;2023-10-08T11:17:23;30.40;99.90
25346;DHT22;13300;51.032;3.710;2023-10-08T11:19:50;31.10;98.60
25346;DHT22;13300;51.032;3.710;2023-10-08T11:22:16;32.00;97.90
25346;DHT22;13300;51.032;3.710;2023-10-08T11:24:42;32.60;97.20
25346;DHT22;13300;51.032;3.710;2023-10-08T11:27:18;33.00;97.10
25346;DHT22;13300;51.032;3.710;2023-10-08T11:30:04;33.20;95.40
25346;DHT22;13300;51.032;3.710;2023-10-08T11:32:36;33.50;95.30
25346;DHT22;13300;51.032;3.710;2023-10-08T11:35:03;33.40;96.10
25346;DHT22;13300;51.032;3.710;2023-10-08T11:37:44;33.30;95.00
25346;DHT22;13300;51.032;3.710;2023-10-08T11:40:10;33.40;95.30
25346;DHT22;13300;51.032;3.710;2023-10-08T11:42:43;32.90;95.00
25346;DHT22;13300;51.032;3.710;2023-10-08T11:45:16;32.80;95.60
25346;DHT22;13300;51.032;3.710;2023-10-08T11:47:53;33.10;95.00
25346;DHT22;13300;51.032;3.710;2023-10-08T11:50:25;33.20;94.00
25346;DHT22;13300;51.032;3.710;2023-10-08T11:52:56;32.20;95.40
25346;DHT22;13300;51.032;3.710;2023-10-08T11:55:27;31.60;95.70
25346;DHT22;13300;51.032;3.710;2023-10-08T11:57:52;31.90;95.70
25346;DHT22;13300;51.032;3.710;2023-10-08T12:00:18;32.10;95.10
25346;DHT22;13300;51.032;3.710;2023-10-08T12:02:53;32.20;95.40
25346;DHT22;13300;51.032;3.710;2023-10-08T12:05:21;32.10;95.10
25346;DHT22;13300;51.032;3.710;2023-10-08T12:07:53;32.40;95.10
25346;DHT22;13300;51.032;3.710;2023-10-08T12:10:22;33.00;94.60
25346;DHT22;13300;51.032;3.710;2023-10-08T12:12:49;33.20;93.90
25346;DHT22;13300;51.032;3.710;2023-10-08T12:15:14;33.20;93.20
25346;DHT22;13300;51.032;3.710;2023-10-08T12:17:48;33.10;93.40
25346;DHT22;13300;51.032;3.710;2023-10-08T12:20:33;32.60;93.70
25346;DHT22;13300;51.032;3.710;2023-10-08T12:23:00;32.50;93.60
25346;DHT22;13300;51.032;3.710;2023-10-08T12:25:25;31.20;95.60
25346;DHT22;13300;51.032;3.710;2023-10-08T12:27:51;31.80;95.20
25346;DHT22;13300;51.032;3.710;2023-10-08T12:30:16;31.20;95.60
25346;DHT22;13300;51.032;3.710;2023-10-08T12:32:42;32.10;95.50
25346;DHT22;13300;51.032;3.710;2023-10-08T12:35:11;33.00;93.40
25346;DHT22;13300;51.032;3.710;2023-10-08T12:37:40;33.50;93.20
25346;DHT22;13300;51.032;3.710;2023-10-08T12:40:06;33.80;92.50
25346;DHT22;13300;51.032;3.710;2023-10-08T12:42:53;33.90;92.00
25346;DHT22;13300;51.032;3.710;2023-10-08T12:45:19;33.70;91.90
25346;DHT22;13300;51.032;3.710;2023-10-08T12:47:51;33.70;93.30
25346;DHT22;13300;51.032;3.710;2023-10-08T12:50:17;33.70;91.80
25346;DHT22;13300;51.032;3.710;2023-10-08T12:52:48;33.10;92.60
25346;DHT22;13300;51.032;3.710;2023-10-08T12:55:20;33.30;92.50
25346;DHT22;13300;51.032;3.710;2023-10-08T12:57:56;34.00;92.20
25346;DHT22;13300;51.032;3.710;2023-10-08T13:00:29;34.50;92.20
25346;DHT22;13300;51.032;3.710;2023-10-08T13:02:54;34.40;92.00
25346;DHT22;13300;51.032;3.710;2023-10-08T13:05:22;34.40;91.50
25346;DHT22;13300;51.032;3.710;2023-10-08T13:07:54;33.40;92.30
25346;DHT22;13300;51.032;3.710;2023-10-08T13:10:21;33.50;93.30
25346;DHT22;13300;51.032;3.710;2023-10-08T13:12:50;33.20;92.40
25346;DHT22;13300;51.032;3.710;2023-10-08T13:15:15;33.40;92.10
25346;DHT22;13300;51.032;3.710;2023-10-08T13:17:41;34.10;91.80
25346;DHT22;13300;51.032;3.710;2023-10-08T13:20:11;34.70;91.80
25346;DHT22;13300;51.032;3.710;2023-10-08T13:22:37;34.80;90.00
25346;DHT22;13300;51.032;3.710;2023-10-08T13:25:03;33.60;89.70
25346;DHT22;13300;51.032;3.710;2023-10-08T13:27:30;33.50;91.00
25346;DHT22;13300;51.032;3.710;2023-10-08T13:29:55;33.80;91.00
25346;DHT22;13300;51.032;3.710;2023-10-08T13:32:21;34.10;90.50
25346;DHT22;13300;51.032;3.710;2023-10-08T13:34:47;33.90;90.00
25346;DHT22;13300;51.032;3.710;2023-10-08T13:37:12;33.40;90.20
25346;DHT22;13300;51.032;3.710;2023-10-08T13:39:41;33.60;91.20
25346;DHT22;13300;51.032;3.710;2023-10-08T13:42:06;33.70;91.30
25346;DHT22;13300;51.032;3.710;2023-10-08T13:44:32;33.60;91.30
25346;DHT22;13300;51.032;3.710;2023-10-08T13:46:58;33.80;90.30
25346;DHT22;13300;51.032;3.710;2023-10-08T13:49:25;33.20;90.70
25346;DHT22;13300;51.032;3.710;2023-10-08T13:51:54;32.90;90.90
25346;DHT22;13300;51.032;3.710;2023-10-08T13:54:23;32.60;91.90
25346;DHT22;13300;51.032;3.710;2023-10-08T13:56:54;32.90;91.30
25346;DHT22;13300;51.032;3.710;2023-10-08T13:59:20;33.00;91.40
25346;DHT22;13300;51.032;3.710;2023-10-08T14:01:50;33.10;91.20
25346;DHT22;13300;51.032;3.710;2023-10-08T14:04:20;32.90;91.20
25346;DHT22;13300;51.032;3.710;2023-10-08T14:06:46;33.10;91.60
25346;DHT22;13300;51.032;3.710;2023-10-08T14:09:20;33.60;90.40
25346;DHT22;13300;51.032;3.710;2023-10-08T14:11:56;33.70;89.80
25346;DHT22;13300;51.032;3.710;2023-10-08T14:14:22;33.40;90.20
25346;DHT22;13300;51.032;3.710;2023-10-08T14:16:49;33.50;90.70
25346;DHT22;13300;51.032;3.710;2023-10-08T14:19:19;33.70;90.30
25346;DHT22;13300;51.032;3.710;2023-10-08T14:21:53;33.60;90.40
25346;DHT22;13300;51.032;3.710;2023-10-08T14:24:25;33.50;91.10
25346;DHT22;13300;51.032;3.710;2023-10-08T14:26:53;33.30;90.80
25346;DHT22;13300;51.032;3.710;2023-10-08T14:29:22;33.20;90.60
25346;DHT22;13300;51.032;3.710;2023-10-08T14:31:50;33.10;91.20
25346;DHT22;13300;51.032;3.710;2023-10-08T14:34:15;32.80;90.90
25346;DHT22;13300;51.032;3.710;2023-10-08T14:36:42;32.00;91.80
25346;DHT22;13300;51.032;3.710;2023-10-08T14:39:26;31.50;92.70
25346;DHT22;13300;51.032;3.710;2023-10-08T14:42:10;30.80;93.20
25346;DHT22;13300;51.032;3.710;2023-10-08T14:44:54;30.20;94.20
25346;DHT22;13300;51.032;3.710;2023-10-08T14:47:20;29.70;95.50
25346;DHT22;13300;51.032;3.710;2023-10-08T14:49:45;29.20;95.60
25346;DHT22;13300;51.032;3.710;2023-10-08T14:52:11;28.80;96.10
25346;DHT22;13300;51.032;3.710;2023-10-08T14:54:37;28.50;97.00
25346;DHT22;13300;51.032;3.710;2023-10-08T14:57:03;28.10;97.90
25346;DHT22;13300;51.032;3.710;2023-10-08T14:59:31;27.60;98.30
25346;DHT22;13300;51.032;3.710;2023-10-08T15:01:57;27.30;98.80
25346;DHT22;13300;51.032;3.710;2023-10-08T15:04:24;27.20;99.70
25346;DHT22;13300;51.032;3.710;2023-10-08T15:06:51;26.80;99.90
25346;DHT22;13300;51.032;3.710;2023-10-08T15:09:17;26.60;99.90
25346;DHT22;13300;51.032;3.710;2023-10-08T15:11:52;26.00;99.90
25346;DHT22;13300;51.032;3.710;2023-10-08T15:14:21;26.00;99.90
25346;DHT22;13300;51.032;3.710;2023-10-08T15:16:49;26.00;99.90
25346;DHT22;13300;51.032;3.710;2023-10-08T15:19:23;26.20;99.90
25346;DHT22;13300;51.032;3.710;2023-10-08T15:21:49;26.30;99.90
25346;DHT22;13300;51.032;3.710;2023-10-08T15:24:20;26.30;99.90
25346;DHT22;13300;51.032;3.710;2023-10-08T15:26:53;26.40;99.90
25346;DHT22;13300;51.032;3.710;2023-10-08T15:29:22;26.40;99.90
25346;DHT22;13300;51.032;3.710;2023-10-08T15:31:52;26.40;99.90
25346;DHT22;13300;51.032;3.710;2023-10-08T15:34:17;26.20;99.90
25346;DHT22;13300;51.032;3.710;2023-10-08T15:36:43;26.00;99.90
25346;DHT22;13300;51.032;3.710;2023-10-08T15:39:08;25.90;99.90
25346;DHT22;13300;51.032;3.710;2023-10-08T15:41:51;25.90;99.90
25346;DHT22;13300;51.032;3.710;2023-10-08T15:44:17;25.90;99.90
25346;DHT22;13300;51.032;3.710;2023-10-08T15:46:46;25.80;99.90
25346;DHT22;13300;51.032;3.710;2023-10-08T15:49:11;25.70;99.90
25346;DHT22;13300;51.032;3.710;2023-10-08T15:51:38;25.70;99.90
25346;DHT22;13300;51.032;3.710;2023-10-08T15:54:04;25.70;99.90
25346;DHT22;13300;51.032;3.710;2023-10-08T15:56:30;25.80;99.90
25346;DHT22;13300;51.032;3.710;2023-10-08T15:58:55;25.90;99.90
25346;DHT22;13300;51.032;3.710;2023-10-08T16:01:24;25.90;99.90
25346;DHT22;13300;51.032;3.710;2023-10-08T16:03:53;25.80;99.90